sensor_id;sensor_type;location;lat;lon;timestamp;P1;durP1;ratioP1;P2;durP2;ratioP2
9489;SDS011;4783;42.734;23.288;2022-12-20T07:45:13;28.40;;;20.03;;
9489;SDS011;4783;42.734;23.288;2022-12-20T08:17:50;23.33;;;16.00;;
9489;SDS011;4783;42.734;23.288;2022-12-20T08:20:15;27.97;;;17.93;;
9489;SDS011;4783;42.734;23.288;2022-12-20T08:22:41;22.73;;;16.37;;
9489;SDS011;4783;42.734;23.288;2022-12-20T08:25:06;22.27;;;15.30;;
9489;SDS011;4783;42.734;23.288;2022-12-20T08:27:32;27.87;;;17.57;;
9489;SDS011;4783;42.734;23.288;2022-12-20T08:29:57;23.27;;;15.87;;
9489;SDS011;4783;42.734;23.288;2022-12-20T08:32:23;19.47;;;15.63;;
9489;SDS011;4783;42.734;23.288;2022-12-20T08:34:48;25.90;;;16.60;;
9489;SDS011;4783;42.734;23.288;2022-12-20T08:37:17;21.33;;;15.47;;
9489;SDS011;4783;42.734;23.288;2022-12-20T08:39:42;22.57;;;15.27;;
9489;SDS011;4783;42.734;23.288;2022-12-20T08:42:08;22.53;;;15.40;;
9489;SDS011;4783;42.734;23.288;2022-12-20T08:44:33;18.70;;;14.83;;
9489;SDS011;4783;42.734;23.288;2022-12-20T08:46:59;19.13;;;14.97;;
9489;SDS011;4783;42.734;23.288;2022-12-20T08:49:24;18.13;;;14.20;;
9489;SDS011;4783;42.734;23.288;2022-12-20T08:51:49;19.23;;;14.40;;
9489;SDS011;4783;42.734;23.288;2022-12-20T08:54:14;18.73;;;14.00;;
9489;SDS011;4783;42.734;23.288;2022-12-20T08:56:41;19.60;;;14.17;;
9489;SDS011;4783;42.734;23.288;2022-12-20T08:59:06;21.30;;;14.20;;
9489;SDS011;4783;42.734;23.288;2022-12-20T09:01:31;18.23;;;14.17;;
9489;SDS011;4783;42.734;23.288;2022-12-20T09:03:57;20.07;;;13.77;;
9489;SDS011;4783;42.734;23.288;2022-12-20T09:06:23;22.70;;;15.17;;
9489;SDS011;4783;42.734;23.288;2022-12-20T09:08:48;19.30;;;14.77;;
9489;SDS011;4783;42.734;23.288;2022-12-20T09:11:15;21.13;;;15.30;;
9489;SDS011;4783;42.734;23.288;2022-12-20T09:13:41;26.83;;;15.80;;
9489;SDS011;4783;42.734;23.288;2022-12-20T09:16:06;19.33;;;14.43;;
9489;SDS011;4783;42.734;23.288;2022-12-20T09:18:32;20.23;;;14.17;;
9489;SDS011;4783;42.734;23.288;2022-12-20T09:20:58;19.97;;;14.37;;
9489;SDS011;4783;42.734;23.288;2022-12-20T09:23:23;21.60;;;15.23;;
9489;SDS011;4783;42.734;23.288;2022-12-20T09:25:49;19.13;;;14.07;;
9489;SDS011;4783;42.734;23.288;2022-12-20T09:28:14;25.60;;;14.97;;
9489;SDS011;4783;42.734;23.288;2022-12-20T09:30:39;24.03;;;15.57;;
9489;SDS011;4783;42.734;23.288;2022-12-20T09:33:04;21.63;;;15.00;;
9489;SDS011;4783;42.734;23.288;2022-12-20T09:35:30;20.05;;;14.68;;
9489;SDS011;4783;42.734;23.288;2022-12-20T09:37:57;19.33;;;14.67;;
9489;SDS011;4783;42.734;23.288;2022-12-20T09:40:23;19.23;;;14.45;;
9489;SDS011;4783;42.734;23.288;2022-12-20T09:42:49;20.03;;;15.00;;
9489;SDS011;4783;42.734;23.288;2022-12-20T09:45:21;17.87;;;13.37;;
9489;SDS011;4783;42.734;23.288;2022-12-20T09:47:48;18.17;;;14.20;;
9489;SDS011;4783;42.734;23.288;2022-12-20T09:50:14;20.00;;;13.90;;
9489;SDS011;4783;42.734;23.288;2022-12-20T09:52:48;18.30;;;13.13;;
9489;SDS011;4783;42.734;23.288;2022-12-20T09:55:29;23.70;;;15.07;;
9489;SDS011;4783;42.734;23.288;2022-12-20T10:00:23;25.90;;;15.30;;
9489;SDS011;4783;42.734;23.288;2022-12-20T10:02:49;17.97;;;13.73;;
9489;SDS011;4783;42.734;23.288;2022-12-20T10:05:26;20.55;;;14.05;;
9489;SDS011;4783;42.734;23.288;2022-12-20T10:07:54;20.73;;;14.40;;
9489;SDS011;4783;42.734;23.288;2022-12-20T10:11:07;19.73;;;14.52;;
9489;SDS011;4783;42.734;23.288;2022-12-20T10:15:59;22.42;;;15.13;;
9489;SDS011;4783;42.734;23.288;2022-12-20T10:21:07;21.02;;;13.75;;
9489;SDS011;4783;42.734;23.288;2022-12-20T10:26:15;19.00;;;13.15;;
9489;SDS011;4783;42.734;23.288;2022-12-20T10:28:40;16.98;;;13.93;;
9489;SDS011;4783;42.734;23.288;2022-12-20T10:31:12;21.50;;;13.45;;
9489;SDS011;4783;42.734;23.288;2022-12-20T10:33:38;24.95;;;14.07;;
9489;SDS011;4783;42.734;23.288;2022-12-20T10:36:23;19.38;;;14.52;;
9489;SDS011;4783;42.734;23.288;2022-12-20T10:38:51;18.52;;;13.38;;
9489;SDS011;4783;42.734;23.288;2022-12-20T10:41:18;17.52;;;13.80;;
9489;SDS011;4783;42.734;23.288;2022-12-20T10:43:45;19.55;;;12.88;;
9489;SDS011;4783;42.734;23.288;2022-12-20T10:46:12;18.20;;;13.73;;
9489;SDS011;4783;42.734;23.288;2022-12-20T10:48:39;18.13;;;13.98;;
9489;SDS011;4783;42.734;23.288;2022-12-20T10:53:34;18.25;;;13.25;;
9489;SDS011;4783;42.734;23.288;2022-12-20T10:58:34;26.33;;;14.75;;
9489;SDS011;4783;42.734;23.288;2022-12-20T11:01:10;22.95;;;14.95;;
9489;SDS011;4783;42.734;23.288;2022-12-20T11:06:21;18.60;;;12.68;;
9489;SDS011;4783;42.734;23.288;2022-12-20T11:08:47;18.55;;;13.15;;
9489;SDS011;4783;42.734;23.288;2022-12-20T11:11:20;20.20;;;13.23;;
9489;SDS011;4783;42.734;23.288;2022-12-20T11:13:46;18.30;;;12.75;;
9489;SDS011;4783;42.734;23.288;2022-12-20T11:16:22;20.15;;;12.75;;
9489;SDS011;4783;42.734;23.288;2022-12-20T11:18:56;18.65;;;12.68;;
9489;SDS011;4783;42.734;23.288;2022-12-20T11:24:17;16.45;;;11.73;;
9489;SDS011;4783;42.734;23.288;2022-12-20T11:36:57;17.33;;;10.98;;
9489;SDS011;4783;42.734;23.288;2022-12-20T11:39:29;15.50;;;11.13;;
9489;SDS011;4783;42.734;23.288;2022-12-20T11:52:35;15.35;;;10.90;;
9489;SDS011;4783;42.734;23.288;2022-12-20T11:55:08;13.85;;;11.10;;
9489;SDS011;4783;42.734;23.288;2022-12-20T11:57:47;14.80;;;11.50;;
9489;SDS011;4783;42.734;23.288;2022-12-20T12:00:18;19.13;;;11.27;;
9489;SDS011;4783;42.734;23.288;2022-12-20T12:02:57;17.00;;;10.80;;
9489;SDS011;4783;42.734;23.288;2022-12-20T12:08:00;15.30;;;9.60;;
9489;SDS011;4783;42.734;23.288;2022-12-20T12:10:32;20.23;;;10.48;;
9489;SDS011;4783;42.734;23.288;2022-12-20T12:13:02;15.45;;;10.15;;
9489;SDS011;4783;42.734;23.288;2022-12-20T12:18:22;17.48;;;9.73;;
9489;SDS011;4783;42.734;23.288;2022-12-20T12:23:25;17.63;;;9.70;;
9489;SDS011;4783;42.734;23.288;2022-12-20T12:25:51;15.52;;;10.30;;
9489;SDS011;4783;42.734;23.288;2022-12-20T12:28:17;14.70;;;9.70;;
9489;SDS011;4783;42.734;23.288;2022-12-20T12:30:45;15.73;;;8.90;;
9489;SDS011;4783;42.734;23.288;2022-12-20T12:33:13;14.13;;;9.00;;
9489;SDS011;4783;42.734;23.288;2022-12-20T12:46:08;11.95;;;9.30;;
9489;SDS011;4783;42.734;23.288;2022-12-20T12:48:39;11.32;;;8.45;;
9489;SDS011;4783;42.734;23.288;2022-12-20T12:51:05;13.20;;;8.38;;
9489;SDS011;4783;42.734;23.288;2022-12-20T12:53:35;11.20;;;8.68;;
9489;SDS011;4783;42.734;23.288;2022-12-20T12:59:07;16.48;;;9.50;;
9489;SDS011;4783;42.734;23.288;2022-12-20T14:01:53;17.98;;;11.60;;
9489;SDS011;4783;42.734;23.288;2022-12-20T14:04:19;15.43;;;10.65;;
9489;SDS011;4783;42.734;23.288;2022-12-20T14:06:58;18.90;;;10.88;;
9489;SDS011;4783;42.734;23.288;2022-12-20T14:09:26;17.13;;;10.50;;
9489;SDS011;4783;42.734;23.288;2022-12-20T14:11:52;16.63;;;10.73;;
9489;SDS011;4783;42.734;23.288;2022-12-20T14:14:17;18.00;;;10.80;;
9489;SDS011;4783;42.734;23.288;2022-12-20T14:16:42;12.05;;;10.13;;
9489;SDS011;4783;42.734;23.288;2022-12-20T14:19:14;12.85;;;9.98;;
